sensor_id;sensor_type;location;lat;lon;timestamp;temperature;humidity
45735;DHT22;31446;49.632;8.328;2022-11-20T00:01:29;3.50;99.90
45735;DHT22;31446;49.632;8.328;2022-11-20T00:16:36;3.30;99.90
45735;DHT22;31446;49.632;8.328;2022-11-20T00:31:42;3.60;99.90
45735;DHT22;31446;49.632;8.328;2022-11-20T00:46:48;3.40;99.90
45735;DHT22;31446;49.632;8.328;2022-11-20T01:01:55;3.40;99.90
45735;DHT22;31446;49.632;8.328;2022-11-20T01:17:01;3.70;99.90
45735;DHT22;31446;49.632;8.328;2022-11-20T01:32:08;3.50;99.90
45735;DHT22;31446;49.632;8.328;2022-11-20T01:47:16;3.70;99.90
45735;DHT22;31446;49.632;8.328;2022-11-20T02:02:23;3.40;99.90
45735;DHT22;31446;49.632;8.328;2022-11-20T02:17:30;3.30;99.90
45735;DHT22;31446;49.632;8.328;2022-11-20T02:32:37;3.50;99.90
45735;DHT22;31446;49.632;8.328;2022-11-20T02:47:43;3.50;99.90
45735;DHT22;31446;49.632;8.328;2022-11-20T03:02:50;3.60;99.90
45735;DHT22;31446;49.632;8.328;2022-11-20T03:17:56;3.40;99.90
45735;DHT22;31446;49.632;8.328;2022-11-20T03:33:03;3.40;99.90
45735;DHT22;31446;49.632;8.328;2022-11-20T03:48:09;3.30;99.90
45735;DHT22;31446;49.632;8.328;2022-11-20T04:03:16;3.80;99.90
45735;DHT22;31446;49.632;8.328;2022-11-20T04:18:22;3.70;99.90
45735;DHT22;31446;49.632;8.328;2022-11-20T04:33:29;4.00;99.90
45735;DHT22;31446;49.632;8.328;2022-11-20T04:48:35;3.80;99.90
45735;DHT22;31446;49.632;8.328;2022-11-20T05:03:42;4.00;99.90
45735;DHT22;31446;49.632;8.328;2022-11-20T05:18:50;3.90;99.90
45735;DHT22;31446;49.632;8.328;2022-11-20T05:33:57;4.40;99.90
45735;DHT22;31446;49.632;8.328;2022-11-20T05:49:03;4.20;99.90
45735;DHT22;31446;49.632;8.328;2022-11-20T06:04:10;4.00;99.90
45735;DHT22;31446;49.632;8.328;2022-11-20T06:19:16;3.90;99.90
45735;DHT22;31446;49.632;8.328;2022-11-20T06:34:23;4.20;99.90
45735;DHT22;31446;49.632;8.328;2022-11-20T06:49:29;4.10;99.90
45735;DHT22;31446;49.632;8.328;2022-11-20T07:04:37;4.20;99.90
45735;DHT22;31446;49.632;8.328;2022-11-20T07:19:44;4.10;99.90
45735;DHT22;31446;49.632;8.328;2022-11-20T07:34:50;4.10;99.90
45735;DHT22;31446;49.632;8.328;2022-11-20T07:49:57;4.70;99.90
45735;DHT22;31446;49.632;8.328;2022-11-20T08:05:15;4.90;99.90
45735;DHT22;31446;49.632;8.328;2022-11-20T08:20:22;4.60;99.90
45735;DHT22;31446;49.632;8.328;2022-11-20T08:35:28;4.90;99.90
45735;DHT22;31446;49.632;8.328;2022-11-20T08:50:38;5.10;99.90
45735;DHT22;31446;49.632;8.328;2022-11-20T09:05:44;4.90;99.90
45735;DHT22;31446;49.632;8.328;2022-11-20T09:20:50;4.80;99.90
45735;DHT22;31446;49.632;8.328;2022-11-20T09:35:56;5.10;99.90
45735;DHT22;31446;49.632;8.328;2022-11-20T09:51:08;5.00;99.90
45735;DHT22;31446;49.632;8.328;2022-11-20T10:06:18;5.10;99.90
45735;DHT22;31446;49.632;8.328;2022-11-20T10:21:33;5.50;99.90
45735;DHT22;31446;49.632;8.328;2022-11-20T10:36:44;5.60;99.90
45735;DHT22;31446;49.632;8.328;2022-11-20T10:52:01;6.10;99.90
45735;DHT22;31446;49.632;8.328;2022-11-20T11:07:13;6.40;99.90
45735;DHT22;31446;49.632;8.328;2022-11-20T11:22:21;6.70;99.90
45735;DHT22;31446;49.632;8.328;2022-11-20T11:37:33;7.50;99.90
45735;DHT22;31446;49.632;8.328;2022-11-20T11:52:43;7.70;99.90
45735;DHT22;31446;49.632;8.328;2022-11-20T12:07:54;8.00;99.90
45735;DHT22;31446;49.632;8.328;2022-11-20T12:23:08;7.50;99.90
45735;DHT22;31446;49.632;8.328;2022-11-20T12:38:35;7.60;99.90
45735;DHT22;31446;49.632;8.328;2022-11-20T12:53:54;8.10;99.90
45735;DHT22;31446;49.632;8.328;2022-11-20T13:09:02;8.10;99.90
45735;DHT22;31446;49.632;8.328;2022-11-20T13:24:24;8.10;99.90
45735;DHT22;31446;49.632;8.328;2022-11-20T13:39:34;8.40;99.90
45735;DHT22;31446;49.632;8.328;2022-11-20T13:54:56;8.90;99.90
45735;DHT22;31446;49.632;8.328;2022-11-20T14:10:22;9.00;99.90
45735;DHT22;31446;49.632;8.328;2022-11-20T14:25:29;9.10;99.90
45735;DHT22;31446;49.632;8.328;2022-11-20T14:40:35;8.80;99.90
45735;DHT22;31446;49.632;8.328;2022-11-20T14:55:42;8.60;99.90
45735;DHT22;31446;49.632;8.328;2022-11-20T15:10:50;8.40;99.90
45735;DHT22;31446;49.632;8.328;2022-11-20T15:25:57;8.10;99.90
45735;DHT22;31446;49.632;8.328;2022-11-20T15:41:04;7.90;99.90
45735;DHT22;31446;49.632;8.328;2022-11-20T15:56:12;7.70;99.90
45735;DHT22;31446;49.632;8.328;2022-11-20T16:11:18;7.60;99.90
45735;DHT22;31446;49.632;8.328;2022-11-20T16:26:25;7.60;99.90
45735;DHT22;31446;49.632;8.328;2022-11-20T16:41:33;7.60;99.90
45735;DHT22;31446;49.632;8.328;2022-11-20T16:56:39;7.50;99.90
45735;DHT22;31446;49.632;8.328;2022-11-20T17:11:47;7.50;99.90
45735;DHT22;31446;49.632;8.328;2022-11-20T17:26:53;7.40;99.90
45735;DHT22;31446;49.632;8.328;2022-11-20T17:41:59;7.40;99.90
45735;DHT22;31446;49.632;8.328;2022-11-20T17:57:18;7.50;99.90
45735;DHT22;31446;49.632;8.328;2022-11-20T18:12:37;7.50;99.90
45735;DHT22;31446;49.632;8.328;2022-11-20T18:27:43;7.50;99.90
45735;DHT22;31446;49.632;8.328;2022-11-20T18:42:49;7.50;99.90
45735;DHT22;31446;49.632;8.328;2022-11-20T18:58:08;7.50;99.90
45735;DHT22;31446;49.632;8.328;2022-11-20T19:13:14;7.40;99.90
45735;DHT22;31446;49.632;8.328;2022-11-20T19:28:20;7.30;99.90
45735;DHT22;31446;49.632;8.328;2022-11-20T19:43:26;7.20;99.90
45735;DHT22;31446;49.632;8.328;2022-11-20T19:58:33;7.20;99.90
45735;DHT22;31446;49.632;8.328;2022-11-20T20:13:40;7.10;99.90
45735;DHT22;31446;49.632;8.328;2022-11-20T20:28:47;7.00;99.90
45735;DHT22;31446;49.632;8.328;2022-11-20T20:43:53;6.80;99.90
45735;DHT22;31446;49.632;8.328;2022-11-20T20:59:12;6.70;99.90
45735;DHT22;31446;49.632;8.328;2022-11-20T21:14:18;6.30;99.90
45735;DHT22;31446;49.632;8.328;2022-11-20T21:29:25;5.90;99.90
45735;DHT22;31446;49.632;8.328;2022-11-20T21:44:32;6.00;99.90
45735;DHT22;31446;49.632;8.328;2022-11-20T21:59:38;6.10;99.90
45735;DHT22;31446;49.632;8.328;2022-11-20T22:14:44;6.40;99.90
45735;DHT22;31446;49.632;8.328;2022-11-20T22:29:51;6.70;99.90
45735;DHT22;31446;49.632;8.328;2022-11-20T22:44:57;7.10;99.90
45735;DHT22;31446;49.632;8.328;2022-11-20T23:00:05;7.30;99.90
45735;DHT22;31446;49.632;8.328;2022-11-20T23:15:12;7.40;99.90
45735;DHT22;31446;49.632;8.328;2022-11-20T23:30:18;7.50;99.90
45735;DHT22;31446;49.632;8.328;2022-11-20T23:45:25;7.50;99.90
